sensor_id;sensor_type;location;lat;lon;timestamp;P1;durP1;ratioP1;P2;durP2;ratioP2
3991;SDS011;2010;48.194;16.394;2024-02-28T00:01:32;8.13;;;6.23;;
3991;SDS011;2010;48.194;16.394;2024-02-28T00:04:02;8.63;;;6.30;;
3991;SDS011;2010;48.194;16.394;2024-02-28T00:06:32;12.50;;;6.60;;
3991;SDS011;2010;48.194;16.394;2024-02-28T00:09:04;6.77;;;6.00;;
3991;SDS011;2010;48.194;16.394;2024-02-28T00:11:36;8.83;;;6.03;;
3991;SDS011;2010;48.194;16.394;2024-02-28T00:14:15;10.47;;;6.80;;
3991;SDS011;2010;48.194;16.394;2024-02-28T00:16:47;7.97;;;5.87;;
3991;SDS011;2010;48.194;16.394;2024-02-28T00:19:20;14.13;;;6.17;;
3991;SDS011;2010;48.194;16.394;2024-02-28T00:21:53;6.00;;;5.40;;
3991;SDS011;2010;48.194;16.394;2024-02-28T00:24:32;8.73;;;6.50;;
3991;SDS011;2010;48.194;16.394;2024-02-28T00:27:02;6.80;;;5.60;;
3991;SDS011;2010;48.194;16.394;2024-02-28T00:29:41;8.47;;;5.97;;
3991;SDS011;2010;48.194;16.394;2024-02-28T00:32:19;9.03;;;5.70;;
3991;SDS011;2010;48.194;16.394;2024-02-28T00:34:52;7.00;;;5.37;;
3991;SDS011;2010;48.194;16.394;2024-02-28T00:37:21;8.53;;;5.90;;
3991;SDS011;2010;48.194;16.394;2024-02-28T00:39:51;8.70;;;6.07;;
3991;SDS011;2010;48.194;16.394;2024-02-28T00:42:21;14.13;;;5.57;;
3991;SDS011;2010;48.194;16.394;2024-02-28T00:44:55;8.67;;;5.77;;
3991;SDS011;2010;48.194;16.394;2024-02-28T00:47:26;8.23;;;5.50;;
3991;SDS011;2010;48.194;16.394;2024-02-28T00:49:59;7.13;;;5.07;;
3991;SDS011;2010;48.194;16.394;2024-02-28T00:52:30;11.00;;;5.70;;
3991;SDS011;2010;48.194;16.394;2024-02-28T00:55:06;7.73;;;5.83;;
3991;SDS011;2010;48.194;16.394;2024-02-28T00:57:39;6.30;;;5.30;;
3991;SDS011;2010;48.194;16.394;2024-02-28T01:00:11;6.60;;;5.47;;
3991;SDS011;2010;48.194;16.394;2024-02-28T01:02:45;7.60;;;5.17;;
3991;SDS011;2010;48.194;16.394;2024-02-28T01:05:14;7.97;;;5.17;;
3991;SDS011;2010;48.194;16.394;2024-02-28T01:07:51;6.80;;;5.70;;
3991;SDS011;2010;48.194;16.394;2024-02-28T01:10:24;7.40;;;6.10;;
3991;SDS011;2010;48.194;16.394;2024-02-28T01:12:57;8.87;;;5.40;;
3991;SDS011;2010;48.194;16.394;2024-02-28T01:15:28;6.80;;;5.90;;
3991;SDS011;2010;48.194;16.394;2024-02-28T01:17:58;12.97;;;6.37;;
3991;SDS011;2010;48.194;16.394;2024-02-28T01:20:27;6.60;;;5.90;;
3991;SDS011;2010;48.194;16.394;2024-02-28T01:23:03;7.67;;;5.30;;
3991;SDS011;2010;48.194;16.394;2024-02-28T01:25:35;7.50;;;4.90;;
3991;SDS011;2010;48.194;16.394;2024-02-28T01:28:06;7.10;;;5.00;;
3991;SDS011;2010;48.194;16.394;2024-02-28T01:30:37;7.03;;;4.37;;
3991;SDS011;2010;48.194;16.394;2024-02-28T01:33:06;4.73;;;3.87;;
3991;SDS011;2010;48.194;16.394;2024-02-28T01:35:41;6.07;;;4.07;;
3991;SDS011;2010;48.194;16.394;2024-02-28T01:38:13;4.80;;;4.07;;
3991;SDS011;2010;48.194;16.394;2024-02-28T01:40:44;5.83;;;4.20;;
3991;SDS011;2010;48.194;16.394;2024-02-28T01:43:15;5.40;;;3.80;;
3991;SDS011;2010;48.194;16.394;2024-02-28T01:45:51;5.97;;;3.90;;
3991;SDS011;2010;48.194;16.394;2024-02-28T01:48:22;4.00;;;3.60;;
3991;SDS011;2010;48.194;16.394;2024-02-28T01:50:51;9.50;;;4.40;;
3991;SDS011;2010;48.194;16.394;2024-02-28T01:53:23;6.13;;;4.03;;
3991;SDS011;2010;48.194;16.394;2024-02-28T01:55:53;3.80;;;3.47;;
3991;SDS011;2010;48.194;16.394;2024-02-28T01:58:25;3.50;;;3.20;;
3991;SDS011;2010;48.194;16.394;2024-02-28T02:00:58;7.73;;;3.83;;
3991;SDS011;2010;48.194;16.394;2024-02-28T02:03:32;4.67;;;3.60;;
3991;SDS011;2010;48.194;16.394;2024-02-28T02:06:05;4.03;;;3.30;;
3991;SDS011;2010;48.194;16.394;2024-02-28T02:08:36;5.87;;;4.30;;
3991;SDS011;2010;48.194;16.394;2024-02-28T02:11:04;7.10;;;4.03;;
3991;SDS011;2010;48.194;16.394;2024-02-28T02:13:46;6.47;;;3.73;;
3991;SDS011;2010;48.194;16.394;2024-02-28T02:16:29;4.20;;;3.67;;
3991;SDS011;2010;48.194;16.394;2024-02-28T02:18:58;4.50;;;3.33;;
3991;SDS011;2010;48.194;16.394;2024-02-28T02:21:30;4.00;;;3.60;;
3991;SDS011;2010;48.194;16.394;2024-02-28T02:24:05;5.80;;;3.70;;
3991;SDS011;2010;48.194;16.394;2024-02-28T02:26:34;4.20;;;3.50;;
3991;SDS011;2010;48.194;16.394;2024-02-28T02:29:04;4.90;;;3.90;;
3991;SDS011;2010;48.194;16.394;2024-02-28T02:31:32;8.23;;;3.63;;
3991;SDS011;2010;48.194;16.394;2024-02-28T02:34:02;9.03;;;4.37;;
3991;SDS011;2010;48.194;16.394;2024-02-28T02:36:41;7.33;;;3.80;;
3991;SDS011;2010;48.194;16.394;2024-02-28T02:39:26;5.80;;;3.67;;
3991;SDS011;2010;48.194;16.394;2024-02-28T02:42:01;6.07;;;4.37;;
3991;SDS011;2010;48.194;16.394;2024-02-28T02:44:31;7.30;;;3.80;;
3991;SDS011;2010;48.194;16.394;2024-02-28T02:47:03;5.13;;;3.93;;
3991;SDS011;2010;48.194;16.394;2024-02-28T02:49:34;5.77;;;3.80;;
3991;SDS011;2010;48.194;16.394;2024-02-28T02:52:03;5.27;;;3.70;;
3991;SDS011;2010;48.194;16.394;2024-02-28T02:54:44;6.63;;;4.00;;
3991;SDS011;2010;48.194;16.394;2024-02-28T02:57:13;6.07;;;4.57;;
3991;SDS011;2010;48.194;16.394;2024-02-28T02:59:45;6.93;;;3.97;;
3991;SDS011;2010;48.194;16.394;2024-02-28T03:02:14;6.73;;;3.80;;
3991;SDS011;2010;48.194;16.394;2024-02-28T03:04:46;8.60;;;4.67;;
3991;SDS011;2010;48.194;16.394;2024-02-28T03:07:17;6.27;;;4.13;;
3991;SDS011;2010;48.194;16.394;2024-02-28T03:09:50;6.30;;;4.30;;
3991;SDS011;2010;48.194;16.394;2024-02-28T03:12:18;5.60;;;4.37;;
3991;SDS011;2010;48.194;16.394;2024-02-28T03:14:50;6.23;;;4.80;;
3991;SDS011;2010;48.194;16.394;2024-02-28T03:17:18;7.87;;;4.80;;
3991;SDS011;2010;48.194;16.394;2024-02-28T03:19:52;5.73;;;4.80;;
3991;SDS011;2010;48.194;16.394;2024-02-28T03:22:25;10.40;;;4.40;;
3991;SDS011;2010;48.194;16.394;2024-02-28T03:25:00;7.07;;;4.23;;
3991;SDS011;2010;48.194;16.394;2024-02-28T03:27:31;5.33;;;4.63;;
3991;SDS011;2010;48.194;16.394;2024-02-28T03:30:11;11.20;;;4.60;;
3991;SDS011;2010;48.194;16.394;2024-02-28T03:32:41;7.90;;;4.90;;
3991;SDS011;2010;48.194;16.394;2024-02-28T03:35:12;6.40;;;5.10;;
3991;SDS011;2010;48.194;16.394;2024-02-28T03:37:43;8.67;;;5.27;;
3991;SDS011;2010;48.194;16.394;2024-02-28T03:40:27;9.90;;;5.30;;
3991;SDS011;2010;48.194;16.394;2024-02-28T03:42:55;11.10;;;5.17;;
3991;SDS011;2010;48.194;16.394;2024-02-28T03:45:27;7.97;;;5.03;;
3991;SDS011;2010;48.194;16.394;2024-02-28T03:47:56;4.60;;;3.73;;
3991;SDS011;2010;48.194;16.394;2024-02-28T03:50:26;8.30;;;4.37;;
3991;SDS011;2010;48.194;16.394;2024-02-28T03:53:01;7.60;;;3.40;;
3991;SDS011;2010;48.194;16.394;2024-02-28T03:55:33;9.03;;;5.10;;
3991;SDS011;2010;48.194;16.394;2024-02-28T03:58:03;7.83;;;5.63;;
3991;SDS011;2010;48.194;16.394;2024-02-28T04:00:39;10.43;;;5.77;;
3991;SDS011;2010;48.194;16.394;2024-02-28T04:03:16;10.50;;;6.07;;
3991;SDS011;2010;48.194;16.394;2024-02-28T04:05:50;14.13;;;7.60;;
3991;SDS011;2010;48.194;16.394;2024-02-28T04:08:21;14.37;;;8.40;;
3991;SDS011;2010;48.194;16.394;2024-02-28T04:10:55;9.77;;;7.90;;
3991;SDS011;2010;48.194;16.394;2024-02-28T04:13:28;13.00;;;8.50;;
3991;SDS011;2010;48.194;16.394;2024-02-28T04:16:02;10.43;;;8.10;;
3991;SDS011;2010;48.194;16.394;2024-02-28T04:18:40;10.13;;;7.63;;
3991;SDS011;2010;48.194;16.394;2024-02-28T04:21:21;14.27;;;8.07;;
3991;SDS011;2010;48.194;16.394;2024-02-28T04:23:53;11.53;;;8.50;;
3991;SDS011;2010;48.194;16.394;2024-02-28T04:26:36;13.60;;;11.47;;
3991;SDS011;2010;48.194;16.394;2024-02-28T04:29:09;16.50;;;12.33;;
3991;SDS011;2010;48.194;16.394;2024-02-28T04:31:49;17.93;;;13.40;;
3991;SDS011;2010;48.194;16.394;2024-02-28T04:34:18;24.10;;;14.17;;
3991;SDS011;2010;48.194;16.394;2024-02-28T04:37:00;18.43;;;14.33;;
3991;SDS011;2010;48.194;16.394;2024-02-28T04:39:31;17.73;;;14.20;;
3991;SDS011;2010;48.194;16.394;2024-02-28T04:42:05;21.50;;;13.73;;
3991;SDS011;2010;48.194;16.394;2024-02-28T04:44:35;21.07;;;14.80;;
3991;SDS011;2010;48.194;16.394;2024-02-28T04:47:13;17.30;;;14.03;;
3991;SDS011;2010;48.194;16.394;2024-02-28T04:49:46;23.93;;;14.57;;
3991;SDS011;2010;48.194;16.394;2024-02-28T04:52:23;22.87;;;15.80;;
3991;SDS011;2010;48.194;16.394;2024-02-28T04:54:53;21.93;;;15.63;;
3991;SDS011;2010;48.194;16.394;2024-02-28T04:57:26;22.30;;;16.50;;
3991;SDS011;2010;48.194;16.394;2024-02-28T05:00:00;26.03;;;16.90;;
3991;SDS011;2010;48.194;16.394;2024-02-28T05:02:31;29.37;;;17.90;;
3991;SDS011;2010;48.194;16.394;2024-02-28T05:05:02;22.87;;;17.47;;
3991;SDS011;2010;48.194;16.394;2024-02-28T05:07:40;26.40;;;17.80;;
3991;SDS011;2010;48.194;16.394;2024-02-28T05:10:13;25.10;;;16.73;;
3991;SDS011;2010;48.194;16.394;2024-02-28T05:12:55;27.53;;;17.37;;
3991;SDS011;2010;48.194;16.394;2024-02-28T05:15:28;22.40;;;17.77;;
3991;SDS011;2010;48.194;16.394;2024-02-28T05:17:59;24.37;;;17.80;;
3991;SDS011;2010;48.194;16.394;2024-02-28T05:20:35;24.90;;;17.00;;
3991;SDS011;2010;48.194;16.394;2024-02-28T05:23:08;23.47;;;16.23;;
3991;SDS011;2010;48.194;16.394;2024-02-28T05:25:37;23.80;;;17.30;;
3991;SDS011;2010;48.194;16.394;2024-02-28T05:28:17;24.73;;;18.70;;
3991;SDS011;2010;48.194;16.394;2024-02-28T05:30:46;22.73;;;17.90;;
3991;SDS011;2010;48.194;16.394;2024-02-28T05:33:21;25.60;;;18.10;;
3991;SDS011;2010;48.194;16.394;2024-02-28T05:35:53;22.70;;;17.10;;
3991;SDS011;2010;48.194;16.394;2024-02-28T05:38:32;25.93;;;18.50;;
3991;SDS011;2010;48.194;16.394;2024-02-28T05:41:04;26.47;;;18.80;;
3991;SDS011;2010;48.194;16.394;2024-02-28T05:43:37;23.70;;;18.60;;
3991;SDS011;2010;48.194;16.394;2024-02-28T05:46:12;25.50;;;18.40;;
3991;SDS011;2010;48.194;16.394;2024-02-28T05:48:41;28.20;;;19.90;;
3991;SDS011;2010;48.194;16.394;2024-02-28T05:51:13;28.20;;;19.77;;
3991;SDS011;2010;48.194;16.394;2024-02-28T05:53:45;28.63;;;19.50;;
3991;SDS011;2010;48.194;16.394;2024-02-28T05:56:20;31.33;;;20.00;;
3991;SDS011;2010;48.194;16.394;2024-02-28T05:58:59;27.67;;;19.33;;
3991;SDS011;2010;48.194;16.394;2024-02-28T06:01:31;27.43;;;18.40;;
3991;SDS011;2010;48.194;16.394;2024-02-28T06:04:08;24.63;;;18.43;;
3991;SDS011;2010;48.194;16.394;2024-02-28T06:06:37;25.93;;;18.70;;
3991;SDS011;2010;48.194;16.394;2024-02-28T06:09:06;27.77;;;19.03;;
3991;SDS011;2010;48.194;16.394;2024-02-28T06:11:40;29.53;;;20.07;;
3991;SDS011;2010;48.194;16.394;2024-02-28T06:14:30;27.17;;;19.53;;
3991;SDS011;2010;48.194;16.394;2024-02-28T06:16:59;27.57;;;20.17;;
3991;SDS011;2010;48.194;16.394;2024-02-28T06:19:29;26.70;;;20.30;;
3991;SDS011;2010;48.194;16.394;2024-02-28T06:22:08;29.47;;;20.27;;
3991;SDS011;2010;48.194;16.394;2024-02-28T06:24:45;27.40;;;20.17;;
3991;SDS011;2010;48.194;16.394;2024-02-28T06:27:15;30.27;;;20.67;;
3991;SDS011;2010;48.194;16.394;2024-02-28T06:29:44;32.00;;;21.10;;
3991;SDS011;2010;48.194;16.394;2024-02-28T06:32:14;30.33;;;20.80;;
3991;SDS011;2010;48.194;16.394;2024-02-28T06:34:54;29.00;;;20.93;;
3991;SDS011;2010;48.194;16.394;2024-02-28T06:37:23;30.47;;;22.13;;
3991;SDS011;2010;48.194;16.394;2024-02-28T06:39:53;28.87;;;21.40;;
3991;SDS011;2010;48.194;16.394;2024-02-28T06:42:32;29.37;;;21.50;;
3991;SDS011;2010;48.194;16.394;2024-02-28T06:45:10;36.60;;;23.40;;
3991;SDS011;2010;48.194;16.394;2024-02-28T06:47:44;39.47;;;22.03;;
3991;SDS011;2010;48.194;16.394;2024-02-28T06:50:16;29.63;;;21.00;;
3991;SDS011;2010;48.194;16.394;2024-02-28T06:52:52;48.67;;;29.77;;
3991;SDS011;2010;48.194;16.394;2024-02-28T06:55:22;32.03;;;22.27;;
3991;SDS011;2010;48.194;16.394;2024-02-28T06:57:53;34.10;;;22.67;;
3991;SDS011;2010;48.194;16.394;2024-02-28T07:00:42;30.77;;;21.77;;
3991;SDS011;2010;48.194;16.394;2024-02-28T07:03:16;37.27;;;27.30;;
3991;SDS011;2010;48.194;16.394;2024-02-28T07:05:48;38.40;;;28.63;;
3991;SDS011;2010;48.194;16.394;2024-02-28T07:08:18;29.70;;;22.80;;
3991;SDS011;2010;48.194;16.394;2024-02-28T07:10:49;31.03;;;22.57;;
3991;SDS011;2010;48.194;16.394;2024-02-28T07:13:22;32.20;;;23.20;;
3991;SDS011;2010;48.194;16.394;2024-02-28T07:15:58;30.80;;;23.10;;
3991;SDS011;2010;48.194;16.394;2024-02-28T07:18:27;31.13;;;22.97;;
3991;SDS011;2010;48.194;16.394;2024-02-28T07:20:58;31.23;;;22.63;;
3991;SDS011;2010;48.194;16.394;2024-02-28T07:23:28;35.10;;;22.90;;
3991;SDS011;2010;48.194;16.394;2024-02-28T07:26:05;29.23;;;20.97;;
3991;SDS011;2010;48.194;16.394;2024-02-28T07:28:49;33.40;;;22.20;;
3991;SDS011;2010;48.194;16.394;2024-02-28T07:31:27;35.97;;;23.07;;
3991;SDS011;2010;48.194;16.394;2024-02-28T07:33:57;34.67;;;23.37;;
3991;SDS011;2010;48.194;16.394;2024-02-28T07:36:31;34.60;;;23.90;;
3991;SDS011;2010;48.194;16.394;2024-02-28T07:39:02;37.33;;;25.10;;
3991;SDS011;2010;48.194;16.394;2024-02-28T07:41:33;34.00;;;24.00;;
3991;SDS011;2010;48.194;16.394;2024-02-28T07:44:04;31.00;;;22.43;;
3991;SDS011;2010;48.194;16.394;2024-02-28T07:46:37;32.93;;;23.77;;
3991;SDS011;2010;48.194;16.394;2024-02-28T07:49:17;34.17;;;22.37;;
3991;SDS011;2010;48.194;16.394;2024-02-28T07:51:52;33.70;;;23.00;;
3991;SDS011;2010;48.194;16.394;2024-02-28T07:54:21;33.20;;;22.77;;
3991;SDS011;2010;48.194;16.394;2024-02-28T07:56:52;32.70;;;22.60;;
3991;SDS011;2010;48.194;16.394;2024-02-28T07:59:29;35.40;;;23.90;;
3991;SDS011;2010;48.194;16.394;2024-02-28T08:02:04;30.17;;;22.67;;
3991;SDS011;2010;48.194;16.394;2024-02-28T08:04:40;32.37;;;23.10;;
3991;SDS011;2010;48.194;16.394;2024-02-28T08:07:12;34.43;;;23.77;;
3991;SDS011;2010;48.194;16.394;2024-02-28T08:09:50;37.57;;;23.20;;
3991;SDS011;2010;48.194;16.394;2024-02-28T08:12:20;33.67;;;23.03;;
3991;SDS011;2010;48.194;16.394;2024-02-28T08:14:50;35.30;;;23.90;;
3991;SDS011;2010;48.194;16.394;2024-02-28T08:17:29;31.47;;;22.87;;
3991;SDS011;2010;48.194;16.394;2024-02-28T08:19:57;41.73;;;23.90;;
3991;SDS011;2010;48.194;16.394;2024-02-28T08:22:34;33.40;;;22.97;;
3991;SDS011;2010;48.194;16.394;2024-02-28T08:25:07;32.07;;;21.93;;
3991;SDS011;2010;48.194;16.394;2024-02-28T08:27:39;31.53;;;22.60;;
3991;SDS011;2010;48.194;16.394;2024-02-28T08:30:16;32.20;;;23.53;;
3991;SDS011;2010;48.194;16.394;2024-02-28T08:32:51;32.83;;;22.73;;
3991;SDS011;2010;48.194;16.394;2024-02-28T08:35:21;28.20;;;20.27;;
3991;SDS011;2010;48.194;16.394;2024-02-28T08:37:54;32.67;;;21.83;;
3991;SDS011;2010;48.194;16.394;2024-02-28T08:40:23;32.50;;;23.27;;
3991;SDS011;2010;48.194;16.394;2024-02-28T08:43:00;32.70;;;22.90;;
3991;SDS011;2010;48.194;16.394;2024-02-28T08:45:32;29.73;;;22.40;;
3991;SDS011;2010;48.194;16.394;2024-02-28T08:48:14;38.70;;;22.80;;
3991;SDS011;2010;48.194;16.394;2024-02-28T08:50:43;36.60;;;23.80;;
3991;SDS011;2010;48.194;16.394;2024-02-28T08:53:13;35.13;;;21.57;;
3991;SDS011;2010;48.194;16.394;2024-02-28T08:55:47;28.80;;;20.37;;
3991;SDS011;2010;48.194;16.394;2024-02-28T08:58:17;28.10;;;21.67;;
3991;SDS011;2010;48.194;16.394;2024-02-28T09:00:54;30.83;;;21.60;;
3991;SDS011;2010;48.194;16.394;2024-02-28T09:03:31;30.53;;;20.83;;
3991;SDS011;2010;48.194;16.394;2024-02-28T09:06:12;30.27;;;21.80;;
3991;SDS011;2010;48.194;16.394;2024-02-28T09:08:47;34.30;;;23.20;;
3991;SDS011;2010;48.194;16.394;2024-02-28T09:11:22;29.73;;;20.53;;
3991;SDS011;2010;48.194;16.394;2024-02-28T09:14:08;30.20;;;21.50;;
3991;SDS011;2010;48.194;16.394;2024-02-28T09:16:47;29.50;;;22.10;;
3991;SDS011;2010;48.194;16.394;2024-02-28T09:19:44;29.80;;;21.43;;
3991;SDS011;2010;48.194;16.394;2024-02-28T09:22:15;32.43;;;22.53;;
3991;SDS011;2010;48.194;16.394;2024-02-28T09:24:49;32.87;;;22.10;;
3991;SDS011;2010;48.194;16.394;2024-02-28T09:27:21;35.83;;;21.40;;
3991;SDS011;2010;48.194;16.394;2024-02-28T09:29:54;30.03;;;22.30;;
3991;SDS011;2010;48.194;16.394;2024-02-28T09:32:25;30.20;;;21.60;;
3991;SDS011;2010;48.194;16.394;2024-02-28T09:35:05;28.33;;;21.00;;
3991;SDS011;2010;48.194;16.394;2024-02-28T09:37:36;32.57;;;22.23;;
3991;SDS011;2010;48.194;16.394;2024-02-28T09:40:16;33.17;;;21.43;;
3991;SDS011;2010;48.194;16.394;2024-02-28T09:42:52;29.80;;;21.63;;
3991;SDS011;2010;48.194;16.394;2024-02-28T09:45:25;30.27;;;22.23;;
3991;SDS011;2010;48.194;16.394;2024-02-28T09:48:04;33.10;;;21.03;;
3991;SDS011;2010;48.194;16.394;2024-02-28T09:50:52;36.13;;;22.50;;
3991;SDS011;2010;48.194;16.394;2024-02-28T09:53:23;33.70;;;21.23;;
3991;SDS011;2010;48.194;16.394;2024-02-28T09:56:02;31.00;;;23.10;;
3991;SDS011;2010;48.194;16.394;2024-02-28T09:58:32;33.10;;;21.50;;
3991;SDS011;2010;48.194;16.394;2024-02-28T10:01:05;28.67;;;21.87;;
3991;SDS011;2010;48.194;16.394;2024-02-28T10:03:40;36.47;;;22.87;;
3991;SDS011;2010;48.194;16.394;2024-02-28T10:06:22;30.70;;;21.40;;
3991;SDS011;2010;48.194;16.394;2024-02-28T10:08:54;32.73;;;21.57;;
3991;SDS011;2010;48.194;16.394;2024-02-28T10:11:24;30.30;;;21.97;;
3991;SDS011;2010;48.194;16.394;2024-02-28T10:14:09;34.43;;;22.23;;
3991;SDS011;2010;48.194;16.394;2024-02-28T10:16:38;31.60;;;22.10;;
3991;SDS011;2010;48.194;16.394;2024-02-28T10:19:21;31.03;;;22.77;;
3991;SDS011;2010;48.194;16.394;2024-02-28T10:21:53;35.43;;;22.00;;
3991;SDS011;2010;48.194;16.394;2024-02-28T10:24:25;30.60;;;21.73;;
3991;SDS011;2010;48.194;16.394;2024-02-28T10:26:54;33.33;;;23.30;;
3991;SDS011;2010;48.194;16.394;2024-02-28T10:29:31;32.60;;;22.50;;
3991;SDS011;2010;48.194;16.394;2024-02-28T10:32:12;29.67;;;21.57;;
3991;SDS011;2010;48.194;16.394;2024-02-28T10:34:43;33.60;;;23.27;;
3991;SDS011;2010;48.194;16.394;2024-02-28T10:37:18;30.43;;;22.53;;
3991;SDS011;2010;48.194;16.394;2024-02-28T10:39:48;31.57;;;22.90;;
3991;SDS011;2010;48.194;16.394;2024-02-28T10:42:22;32.67;;;22.70;;
3991;SDS011;2010;48.194;16.394;2024-02-28T10:44:56;30.77;;;21.60;;
3991;SDS011;2010;48.194;16.394;2024-02-28T10:47:45;32.40;;;23.00;;
3991;SDS011;2010;48.194;16.394;2024-02-28T10:50:16;36.73;;;23.87;;
3991;SDS011;2010;48.194;16.394;2024-02-28T10:52:48;31.40;;;23.73;;
3991;SDS011;2010;48.194;16.394;2024-02-28T10:55:26;37.47;;;23.20;;
3991;SDS011;2010;48.194;16.394;2024-02-28T10:58:07;37.37;;;23.97;;
3991;SDS011;2010;48.194;16.394;2024-02-28T11:00:42;32.97;;;24.40;;
3991;SDS011;2010;48.194;16.394;2024-02-28T11:03:15;32.20;;;23.73;;
3991;SDS011;2010;48.194;16.394;2024-02-28T11:05:52;34.57;;;23.70;;
3991;SDS011;2010;48.194;16.394;2024-02-28T11:08:26;32.13;;;22.50;;
3991;SDS011;2010;48.194;16.394;2024-02-28T11:11:02;31.00;;;22.73;;
3991;SDS011;2010;48.194;16.394;2024-02-28T11:13:33;33.07;;;22.50;;
3991;SDS011;2010;48.194;16.394;2024-02-28T11:16:07;28.97;;;21.80;;
3991;SDS011;2010;48.194;16.394;2024-02-28T11:18:47;30.83;;;23.00;;
3991;SDS011;2010;48.194;16.394;2024-02-28T11:21:19;35.00;;;23.10;;
3991;SDS011;2010;48.194;16.394;2024-02-28T11:24:00;37.57;;;24.73;;
3991;SDS011;2010;48.194;16.394;2024-02-28T11:26:31;31.87;;;23.63;;
3991;SDS011;2010;48.194;16.394;2024-02-28T11:29:02;35.03;;;23.57;;
3991;SDS011;2010;48.194;16.394;2024-02-28T11:31:31;36.93;;;23.40;;
3991;SDS011;2010;48.194;16.394;2024-02-28T11:34:03;32.07;;;23.50;;
3991;SDS011;2010;48.194;16.394;2024-02-28T11:36:31;33.80;;;22.77;;
3991;SDS011;2010;48.194;16.394;2024-02-28T11:39:17;38.27;;;23.90;;
3991;SDS011;2010;48.194;16.394;2024-02-28T11:41:52;35.90;;;24.20;;
3991;SDS011;2010;48.194;16.394;2024-02-28T11:44:23;32.63;;;23.23;;
3991;SDS011;2010;48.194;16.394;2024-02-28T11:46:52;31.13;;;22.00;;
3991;SDS011;2010;48.194;16.394;2024-02-28T11:49:25;34.00;;;24.13;;
3991;SDS011;2010;48.194;16.394;2024-02-28T11:52:07;33.70;;;23.07;;
3991;SDS011;2010;48.194;16.394;2024-02-28T11:54:53;34.60;;;22.80;;
3991;SDS011;2010;48.194;16.394;2024-02-28T11:57:21;35.87;;;23.60;;
3991;SDS011;2010;48.194;16.394;2024-02-28T11:59:54;37.87;;;23.80;;
3991;SDS011;2010;48.194;16.394;2024-02-28T12:02:49;35.73;;;23.40;;
3991;SDS011;2010;48.194;16.394;2024-02-28T12:05:26;33.70;;;22.93;;
3991;SDS011;2010;48.194;16.394;2024-02-28T12:08:02;38.27;;;25.30;;
3991;SDS011;2010;48.194;16.394;2024-02-28T12:10:50;38.53;;;22.90;;
3991;SDS011;2010;48.194;16.394;2024-02-28T12:13:25;33.60;;;22.90;;
3991;SDS011;2010;48.194;16.394;2024-02-28T12:15:57;32.50;;;22.60;;
3991;SDS011;2010;48.194;16.394;2024-02-28T12:18:40;40.13;;;23.30;;
3991;SDS011;2010;48.194;16.394;2024-02-28T12:21:12;31.17;;;21.43;;
3991;SDS011;2010;48.194;16.394;2024-02-28T12:23:44;30.50;;;21.73;;
3991;SDS011;2010;48.194;16.394;2024-02-28T12:26:20;33.83;;;23.40;;
3991;SDS011;2010;48.194;16.394;2024-02-28T12:29:02;34.53;;;22.80;;
3991;SDS011;2010;48.194;16.394;2024-02-28T12:31:35;30.37;;;21.43;;
3991;SDS011;2010;48.194;16.394;2024-02-28T12:34:06;30.23;;;21.47;;
3991;SDS011;2010;48.194;16.394;2024-02-28T12:36:37;31.20;;;22.00;;
3991;SDS011;2010;48.194;16.394;2024-02-28T12:39:09;33.50;;;21.97;;
3991;SDS011;2010;48.194;16.394;2024-02-28T12:41:45;34.40;;;21.53;;
3991;SDS011;2010;48.194;16.394;2024-02-28T12:44:15;32.90;;;21.50;;
3991;SDS011;2010;48.194;16.394;2024-02-28T12:46:56;32.80;;;22.20;;
3991;SDS011;2010;48.194;16.394;2024-02-28T12:49:27;29.50;;;21.70;;
3991;SDS011;2010;48.194;16.394;2024-02-28T12:52:03;39.93;;;23.20;;
3991;SDS011;2010;48.194;16.394;2024-02-28T12:54:32;32.73;;;21.53;;
3991;SDS011;2010;48.194;16.394;2024-02-28T12:57:08;30.13;;;21.93;;
3991;SDS011;2010;48.194;16.394;2024-02-28T12:59:42;30.13;;;20.53;;
3991;SDS011;2010;48.194;16.394;2024-02-28T13:02:19;31.47;;;22.23;;
3991;SDS011;2010;48.194;16.394;2024-02-28T13:04:55;32.17;;;23.40;;
3991;SDS011;2010;48.194;16.394;2024-02-28T13:07:27;33.23;;;22.90;;
3991;SDS011;2010;48.194;16.394;2024-02-28T13:10:00;34.20;;;22.47;;
3991;SDS011;2010;48.194;16.394;2024-02-28T13:12:45;35.40;;;22.80;;
3991;SDS011;2010;48.194;16.394;2024-02-28T13:15:16;30.27;;;21.40;;
3991;SDS011;2010;48.194;16.394;2024-02-28T13:17:56;29.60;;;20.07;;
3991;SDS011;2010;48.194;16.394;2024-02-28T13:20:31;32.53;;;21.70;;
3991;SDS011;2010;48.194;16.394;2024-02-28T13:23:02;29.40;;;20.43;;
3991;SDS011;2010;48.194;16.394;2024-02-28T13:25:52;32.00;;;22.10;;
3991;SDS011;2010;48.194;16.394;2024-02-28T13:28:25;32.97;;;22.90;;
3991;SDS011;2010;48.194;16.394;2024-02-28T13:31:03;31.30;;;21.73;;
3991;SDS011;2010;48.194;16.394;2024-02-28T13:33:35;34.43;;;21.50;;
3991;SDS011;2010;48.194;16.394;2024-02-28T13:36:15;28.87;;;21.00;;
3991;SDS011;2010;48.194;16.394;2024-02-28T13:38:45;28.50;;;20.00;;
3991;SDS011;2010;48.194;16.394;2024-02-28T13:41:24;28.40;;;18.07;;
3991;SDS011;2010;48.194;16.394;2024-02-28T13:44:04;29.10;;;18.37;;
3991;SDS011;2010;48.194;16.394;2024-02-28T13:46:38;23.90;;;18.10;;
3991;SDS011;2010;48.194;16.394;2024-02-28T13:49:16;27.67;;;18.67;;
3991;SDS011;2010;48.194;16.394;2024-02-28T13:51:46;27.10;;;19.37;;
3991;SDS011;2010;48.194;16.394;2024-02-28T13:54:16;28.17;;;19.13;;
3991;SDS011;2010;48.194;16.394;2024-02-28T13:56:48;29.83;;;19.70;;
3991;SDS011;2010;48.194;16.394;2024-02-28T13:59:20;31.30;;;19.43;;
3991;SDS011;2010;48.194;16.394;2024-02-28T14:02:00;26.70;;;18.10;;
3991;SDS011;2010;48.194;16.394;2024-02-28T14:04:33;27.10;;;19.50;;
3991;SDS011;2010;48.194;16.394;2024-02-28T14:07:06;31.23;;;21.00;;
3991;SDS011;2010;48.194;16.394;2024-02-28T14:09:34;33.60;;;18.80;;
3991;SDS011;2010;48.194;16.394;2024-02-28T14:12:10;31.97;;;18.67;;
3991;SDS011;2010;48.194;16.394;2024-02-28T14:14:45;30.97;;;21.03;;
3991;SDS011;2010;48.194;16.394;2024-02-28T14:17:22;26.07;;;18.40;;
3991;SDS011;2010;48.194;16.394;2024-02-28T14:20:00;29.57;;;20.67;;
3991;SDS011;2010;48.194;16.394;2024-02-28T14:22:30;31.27;;;20.13;;
3991;SDS011;2010;48.194;16.394;2024-02-28T14:25:11;30.97;;;20.43;;
3991;SDS011;2010;48.194;16.394;2024-02-28T14:27:43;29.27;;;18.53;;
3991;SDS011;2010;48.194;16.394;2024-02-28T14:30:15;28.40;;;19.40;;
3991;SDS011;2010;48.194;16.394;2024-02-28T14:32:44;28.60;;;19.47;;
3991;SDS011;2010;48.194;16.394;2024-02-28T14:35:18;29.00;;;19.20;;
3991;SDS011;2010;48.194;16.394;2024-02-28T14:37:48;30.17;;;20.43;;
3991;SDS011;2010;48.194;16.394;2024-02-28T14:40:16;29.90;;;19.70;;
3991;SDS011;2010;48.194;16.394;2024-02-28T14:42:45;27.90;;;20.40;;
3991;SDS011;2010;48.194;16.394;2024-02-28T14:45:20;27.60;;;19.60;;
3991;SDS011;2010;48.194;16.394;2024-02-28T14:48:02;32.03;;;20.30;;
3991;SDS011;2010;48.194;16.394;2024-02-28T14:50:42;28.63;;;19.13;;
3991;SDS011;2010;48.194;16.394;2024-02-28T14:53:19;30.83;;;18.67;;
3991;SDS011;2010;48.194;16.394;2024-02-28T14:55:50;26.50;;;18.27;;
3991;SDS011;2010;48.194;16.394;2024-02-28T14:58:22;24.23;;;17.40;;
3991;SDS011;2010;48.194;16.394;2024-02-28T15:00:55;26.37;;;17.80;;
3991;SDS011;2010;48.194;16.394;2024-02-28T15:03:31;28.27;;;17.87;;
3991;SDS011;2010;48.194;16.394;2024-02-28T15:06:08;23.13;;;15.10;;
3991;SDS011;2010;48.194;16.394;2024-02-28T15:08:42;22.67;;;17.00;;
3991;SDS011;2010;48.194;16.394;2024-02-28T15:11:15;28.70;;;17.53;;
3991;SDS011;2010;48.194;16.394;2024-02-28T15:13:43;27.27;;;17.20;;
3991;SDS011;2010;48.194;16.394;2024-02-28T15:16:20;28.07;;;18.03;;
3991;SDS011;2010;48.194;16.394;2024-02-28T15:18:50;30.70;;;18.80;;
3991;SDS011;2010;48.194;16.394;2024-02-28T15:21:22;24.17;;;16.80;;